sensor_id;sensor_type;location;lat;lon;timestamp;pressure;altitude;pressure_sealevel;temperature;humidity
58534;BME280;44109;52.398;7.024;2023-02-13T00:00:57;103586.94;;;8.80;100.00
58534;BME280;44109;52.398;7.024;2023-02-13T00:03:25;103588.25;;;8.87;100.00
58534;BME280;44109;52.398;7.024;2023-02-13T00:05:53;103574.94;;;8.89;100.00
58534;BME280;44109;52.398;7.024;2023-02-13T00:08:20;103580.34;;;9.05;100.00
58534;BME280;44109;52.398;7.024;2023-02-13T00:10:48;103585.84;;;9.10;100.00
58534;BME280;44109;52.398;7.024;2023-02-13T00:13:16;103581.94;;;9.11;100.00
58534;BME280;44109;52.398;7.024;2023-02-13T00:15:43;103569.81;;;9.07;100.00
58534;BME280;44109;52.398;7.024;2023-02-13T00:18:12;103577.47;;;9.15;100.00
58534;BME280;44109;52.398;7.024;2023-02-13T00:20:40;103580.25;;;9.15;100.00
58534;BME280;44109;52.398;7.024;2023-02-13T00:23:07;103574.97;;;9.19;100.00
58534;BME280;44109;52.398;7.024;2023-02-13T00:25:35;103579.44;;;9.14;100.00
58534;BME280;44109;52.398;7.024;2023-02-13T00:28:03;103576.50;;;9.01;100.00
58534;BME280;44109;52.398;7.024;2023-02-13T00:30:30;103574.00;;;8.99;100.00
58534;BME280;44109;52.398;7.024;2023-02-13T00:32:58;103575.38;;;9.02;100.00
58534;BME280;44109;52.398;7.024;2023-02-13T00:35:27;103562.63;;;9.06;100.00
58534;BME280;44109;52.398;7.024;2023-02-13T00:37:54;103567.59;;;9.09;100.00
58534;BME280;44109;52.398;7.024;2023-02-13T00:40:22;103570.31;;;9.14;100.00
58534;BME280;44109;52.398;7.024;2023-02-13T00:42:50;103560.03;;;9.14;100.00
58534;BME280;44109;52.398;7.024;2023-02-13T00:45:18;103571.38;;;9.18;100.00
58534;BME280;44109;52.398;7.024;2023-02-13T00:47:45;103574.66;;;9.20;100.00
58534;BME280;44109;52.398;7.024;2023-02-13T00:50:13;103570.75;;;9.21;100.00
58534;BME280;44109;52.398;7.024;2023-02-13T00:52:42;103574.09;;;9.23;100.00
58534;BME280;44109;52.398;7.024;2023-02-13T00:55:09;103572.44;;;9.22;100.00
58534;BME280;44109;52.398;7.024;2023-02-13T00:57:37;103575.72;;;9.24;100.00
58534;BME280;44109;52.398;7.024;2023-02-13T01:02:38;103572.97;;;9.24;100.00
58534;BME280;44109;52.398;7.024;2023-02-13T01:05:06;103573.78;;;9.25;100.00
58534;BME280;44109;52.398;7.024;2023-02-13T01:07:37;103571.84;;;9.25;100.00
58534;BME280;44109;52.398;7.024;2023-02-13T01:10:06;103570.19;;;9.24;100.00
58534;BME280;44109;52.398;7.024;2023-02-13T01:12:34;103570.19;;;9.24;100.00
58534;BME280;44109;52.398;7.024;2023-02-13T01:15:03;103563.00;;;9.23;100.00
58534;BME280;44109;52.398;7.024;2023-02-13T01:17:35;103566.03;;;9.22;100.00
58534;BME280;44109;52.398;7.024;2023-02-13T01:20:05;103559.16;;;9.19;100.00
58534;BME280;44109;52.398;7.024;2023-02-13T01:22:33;103564.69;;;9.19;100.00
58534;BME280;44109;52.398;7.024;2023-02-13T01:25:01;103569.69;;;9.17;100.00
58534;BME280;44109;52.398;7.024;2023-02-13T01:27:31;103568.16;;;9.06;99.65
58534;BME280;44109;52.398;7.024;2023-02-13T01:29:59;103565.03;;;8.83;100.00
58534;BME280;44109;52.398;7.024;2023-02-13T01:32:27;103560.88;;;8.86;100.00
58534;BME280;44109;52.398;7.024;2023-02-13T01:34:55;103566.59;;;8.95;100.00
58534;BME280;44109;52.398;7.024;2023-02-13T01:37:22;103567.66;;;8.99;100.00
58534;BME280;44109;52.398;7.024;2023-02-13T01:39:50;103565.44;;;9.01;100.00
58534;BME280;44109;52.398;7.024;2023-02-13T01:42:23;103559.59;;;9.02;100.00
58534;BME280;44109;52.398;7.024;2023-02-13T01:44:54;103560.97;;;9.05;100.00
58534;BME280;44109;52.398;7.024;2023-02-13T01:47:26;103560.97;;;9.05;100.00
58534;BME280;44109;52.398;7.024;2023-02-13T01:50:05;103559.03;;;9.05;100.00
58534;BME280;44109;52.398;7.024;2023-02-13T01:52:40;103544.41;;;9.00;100.00
58534;BME280;44109;52.398;7.024;2023-02-13T01:55:13;103551.84;;;9.04;100.00
58534;BME280;44109;52.398;7.024;2023-02-13T01:57:43;103554.31;;;9.06;100.00
58534;BME280;44109;52.398;7.024;2023-02-13T02:00:18;103544.63;;;9.03;100.00
58534;BME280;44109;52.398;7.024;2023-02-13T02:02:49;103554.25;;;9.11;100.00
58534;BME280;44109;52.398;7.024;2023-02-13T02:05:23;103544.13;;;9.01;100.00
58534;BME280;44109;52.398;7.024;2023-02-13T02:07:56;103544.94;;;9.02;100.00
58534;BME280;44109;52.398;7.024;2023-02-13T02:10:28;103549.34;;;9.03;100.00
58534;BME280;44109;52.398;7.024;2023-02-13T02:13:02;103542.72;;;9.04;100.00
58534;BME280;44109;52.398;7.024;2023-02-13T02:15:34;103539.09;;;9.03;100.00
58534;BME280;44109;52.398;7.024;2023-02-13T02:18:02;103536.31;;;9.03;100.00
58534;BME280;44109;52.398;7.024;2023-02-13T02:20:45;103531.09;;;9.02;100.00
58534;BME280;44109;52.398;7.024;2023-02-13T02:23:46;103539.41;;;9.02;100.00
58534;BME280;44109;52.398;7.024;2023-02-13T02:29:52;103542.22;;;8.97;100.00
58534;BME280;44109;52.398;7.024;2023-02-13T02:32:52;103543.66;;;8.89;100.00
58534;BME280;44109;52.398;7.024;2023-02-13T02:35:33;103535.47;;;8.79;100.00
58534;BME280;44109;52.398;7.024;2023-02-13T02:38:16;103531.41;;;8.66;100.00
58534;BME280;44109;52.398;7.024;2023-02-13T02:40:58;103537.47;;;8.73;100.00
58534;BME280;44109;52.398;7.024;2023-02-13T02:43:44;103532.19;;;8.77;100.00
58534;BME280;44109;52.398;7.024;2023-02-13T02:46:24;103522.66;;;8.54;100.00
58534;BME280;44109;52.398;7.024;2023-02-13T02:49:04;103527.22;;;8.74;100.00
58534;BME280;44109;52.398;7.024;2023-02-13T02:52:01;103526.59;;;8.82;100.00
58534;BME280;44109;52.398;7.024;2023-02-13T02:54:36;103521.28;;;8.85;100.00
58534;BME280;44109;52.398;7.024;2023-02-13T02:57:30;103503.69;;;8.71;100.00
58534;BME280;44109;52.398;7.024;2023-02-13T03:00:14;103530.66;;;8.89;100.00
58534;BME280;44109;52.398;7.024;2023-02-13T03:03:00;103519.56;;;8.89;100.00
58534;BME280;44109;52.398;7.024;2023-02-13T03:05:50;103523.47;;;8.88;100.00
58534;BME280;44109;52.398;7.024;2023-02-13T03:08:36;103521.25;;;8.91;100.00
58534;BME280;44109;52.398;7.024;2023-02-13T03:11:40;103514.66;;;8.86;100.00
58534;BME280;44109;52.398;7.024;2023-02-13T03:14:32;103516.75;;;8.95;100.00
58534;BME280;44109;52.398;7.024;2023-02-13T03:17:00;103515.66;;;8.96;100.00
58534;BME280;44109;52.398;7.024;2023-02-13T03:19:56;103502.41;;;8.93;100.00
58534;BME280;44109;52.398;7.024;2023-02-13T03:23:01;103521.72;;;8.98;100.00
58534;BME280;44109;52.398;7.024;2023-02-13T03:25:39;103520.06;;;8.97;100.00
58534;BME280;44109;52.398;7.024;2023-02-13T03:28:21;103516.19;;;8.98;100.00
58534;BME280;44109;52.398;7.024;2023-02-13T03:31:20;103516.22;;;8.93;100.00
58534;BME280;44109;52.398;7.024;2023-02-13T03:34:00;103516.81;;;8.89;100.00
58534;BME280;44109;52.398;7.024;2023-02-13T03:36:42;103519.00;;;8.93;100.00
58534;BME280;44109;52.398;7.024;2023-02-13T03:39:43;103520.13;;;8.92;100.00
58534;BME280;44109;52.398;7.024;2023-02-13T03:42:25;103509.31;;;8.90;100.00
58534;BME280;44109;52.398;7.024;2023-02-13T03:45:00;103514.88;;;8.90;100.00
58534;BME280;44109;52.398;7.024;2023-02-13T03:47:50;103519.31;;;8.91;100.00
58534;BME280;44109;52.398;7.024;2023-02-13T03:50:22;103518.19;;;8.92;100.00
58534;BME280;44109;52.398;7.024;2023-02-13T03:52:54;103520.13;;;8.92;100.00
58534;BME280;44109;52.398;7.024;2023-02-13T03:55:32;103519.56;;;8.89;100.00
58534;BME280;44109;52.398;7.024;2023-02-13T03:58:25;103513.06;;;8.75;100.00
58534;BME280;44109;52.398;7.024;2023-02-13T04:01:15;103512.25;;;8.75;100.00
58534;BME280;44109;52.398;7.024;2023-02-13T04:03:48;103522.69;;;8.83;100.00
58534;BME280;44109;52.398;7.024;2023-02-13T04:06:21;103516.88;;;8.84;100.00
58534;BME280;44109;52.398;7.024;2023-02-13T04:08:52;103523.81;;;8.82;100.00
58534;BME280;44109;52.398;7.024;2023-02-13T04:11:25;103523.00;;;8.81;100.00
58534;BME280;44109;52.398;7.024;2023-02-13T04:14:00;103521.97;;;8.72;100.00
58534;BME280;44109;52.398;7.024;2023-02-13T04:16:36;103515.41;;;8.63;100.00
58534;BME280;44109;52.398;7.024;2023-02-13T04:19:08;103521.97;;;8.72;100.00
58534;BME280;44109;52.398;7.024;2023-02-13T04:21:38;103524.16;;;8.75;100.00
58534;BME280;44109;52.398;7.024;2023-02-13T04:24:07;103518.34;;;8.77;100.00
58534;BME280;44109;52.398;7.024;2023-02-13T04:26:40;103521.94;;;8.77;100.00
58534;BME280;44109;52.398;7.024;2023-02-13T04:29:08;103515.31;;;8.73;100.00
58534;BME280;44109;52.398;7.024;2023-02-13T04:31:36;103520.81;;;8.78;100.00
58534;BME280;44109;52.398;7.024;2023-02-13T04:34:05;103522.75;;;8.78;100.00
58534;BME280;44109;52.398;7.024;2023-02-13T04:36:32;103522.50;;;8.74;100.00
58534;BME280;44109;52.398;7.024;2023-02-13T04:39:00;103507.13;;;8.63;100.00
58534;BME280;44109;52.398;7.024;2023-02-13T04:41:27;103521.13;;;8.72;100.00
58534;BME280;44109;52.398;7.024;2023-02-13T04:43:56;103516.56;;;8.57;100.00
58534;BME280;44109;52.398;7.024;2023-02-13T04:46:24;103511.59;;;8.54;100.00
58534;BME280;44109;52.398;7.024;2023-02-13T04:48:52;103511.53;;;8.64;100.00
58534;BME280;44109;52.398;7.024;2023-02-13T04:51:19;103502.63;;;8.67;100.00
58534;BME280;44109;52.398;7.024;2023-02-13T04:53:47;103504.31;;;8.68;100.00
58534;BME280;44109;52.398;7.024;2023-02-13T04:56:15;103504.81;;;8.70;100.00
58534;BME280;44109;52.398;7.024;2023-02-13T04:58:42;103493.75;;;8.70;100.00
58534;BME280;44109;52.398;7.024;2023-02-13T05:01:12;103502.59;;;8.72;100.00
58534;BME280;44109;52.398;7.024;2023-02-13T05:03:41;103483.31;;;8.62;100.00
58534;BME280;44109;52.398;7.024;2023-02-13T05:06:08;103494.19;;;8.53;100.00
58534;BME280;44109;52.398;7.024;2023-02-13T05:08:36;103499.63;;;8.24;100.00
58534;BME280;44109;52.398;7.024;2023-02-13T05:11:04;103501.31;;;8.20;100.00
58534;BME280;44109;52.398;7.024;2023-02-13T05:13:32;103500.16;;;8.36;100.00
58534;BME280;44109;52.398;7.024;2023-02-13T05:15:59;103502.53;;;8.48;100.00
58534;BME280;44109;52.398;7.024;2023-02-13T05:18:28;103511.13;;;8.47;100.00
58534;BME280;44109;52.398;7.024;2023-02-13T05:20:56;103513.38;;;8.39;100.00
58534;BME280;44109;52.398;7.024;2023-02-13T05:23:37;103513.84;;;8.52;100.00
58534;BME280;44109;52.398;7.024;2023-02-13T05:26:05;103499.97;;;8.57;100.00
58534;BME280;44109;52.398;7.024;2023-02-13T05:28:33;103503.81;;;8.61;100.00
58534;BME280;44109;52.398;7.024;2023-02-13T05:31:18;103501.22;;;8.70;100.00
58534;BME280;44109;52.398;7.024;2023-02-13T05:33:47;103493.28;;;8.63;100.00
58534;BME280;44109;52.398;7.024;2023-02-13T05:36:14;103496.94;;;8.58;100.00
58534;BME280;44109;52.398;7.024;2023-02-13T05:38:42;103506.56;;;8.61;100.00
58534;BME280;44109;52.398;7.024;2023-02-13T05:41:09;103498.81;;;8.63;100.00
58534;BME280;44109;52.398;7.024;2023-02-13T05:43:38;103489.66;;;8.68;100.00
58534;BME280;44109;52.398;7.024;2023-02-13T05:46:07;103494.88;;;8.69;100.00
58534;BME280;44109;52.398;7.024;2023-02-13T05:48:35;103498.25;;;8.61;100.00
58534;BME280;44109;52.398;7.024;2023-02-13T05:51:05;103491.59;;;8.62;100.00
58534;BME280;44109;52.398;7.024;2023-02-13T05:53:33;103492.69;;;8.66;100.00
58534;BME280;44109;52.398;7.024;2023-02-13T05:56:01;103495.69;;;8.41;100.00
58534;BME280;44109;52.398;7.024;2023-02-13T05:58:30;103494.00;;;8.39;100.00
58534;BME280;44109;52.398;7.024;2023-02-13T06:00:59;103500.56;;;8.49;100.00
58534;BME280;44109;52.398;7.024;2023-02-13T06:03:28;103503.03;;;8.55;100.00
58534;BME280;44109;52.398;7.024;2023-02-13T06:05:57;103502.22;;;8.55;100.00
58534;BME280;44109;52.398;7.024;2023-02-13T06:08:26;103507.47;;;8.51;100.00
58534;BME280;44109;52.398;7.024;2023-02-13T06:10:55;103497.59;;;8.45;100.00
58534;BME280;44109;52.398;7.024;2023-02-13T06:13:22;103505.50;;;8.57;100.00
58534;BME280;44109;52.398;7.024;2023-02-13T06:15:51;103504.63;;;8.61;100.00
58534;BME280;44109;52.398;7.024;2023-02-13T06:18:18;103502.69;;;8.62;100.00
58534;BME280;44109;52.398;7.024;2023-02-13T06:20:46;103512.09;;;8.61;100.00
58534;BME280;44109;52.398;7.024;2023-02-13T06:23:14;103517.69;;;8.56;100.00
58534;BME280;44109;52.398;7.024;2023-02-13T06:25:44;103518.88;;;8.45;100.00
58534;BME280;44109;52.398;7.024;2023-02-13T06:28:11;103524.34;;;8.55;100.00
58534;BME280;44109;52.398;7.024;2023-02-13T06:30:39;103506.66;;;8.51;100.00
58534;BME280;44109;52.398;7.024;2023-02-13T06:33:07;103525.88;;;8.66;100.00
58534;BME280;44109;52.398;7.024;2023-02-13T06:35:34;103531.41;;;8.66;100.00
58534;BME280;44109;52.398;7.024;2023-02-13T06:38:02;103529.78;;;8.65;100.00
58534;BME280;44109;52.398;7.024;2023-02-13T06:40:29;103534.13;;;8.71;100.00
58534;BME280;44109;52.398;7.024;2023-02-13T06:42:58;103538.78;;;8.47;100.00
58534;BME280;44109;52.398;7.024;2023-02-13T06:45:26;103529.34;;;8.48;100.00
58534;BME280;44109;52.398;7.024;2023-02-13T06:47:54;103533.16;;;8.57;100.00
58534;BME280;44109;52.398;7.024;2023-02-13T06:50:21;103544.78;;;8.54;100.00
58534;BME280;44109;52.398;7.024;2023-02-13T06:52:50;103550.06;;;8.55;100.00
58534;BME280;44109;52.398;7.024;2023-02-13T06:55:18;103546.94;;;8.62;100.00
58534;BME280;44109;52.398;7.024;2023-02-13T06:57:47;103549.41;;;8.69;100.00
58534;BME280;44109;52.398;7.024;2023-02-13T07:00:17;103548.63;;;8.63;100.00
58534;BME280;44109;52.398;7.024;2023-02-13T07:02:46;103550.53;;;8.62;100.00
58534;BME280;44109;52.398;7.024;2023-02-13T07:05:14;103554.13;;;8.68;100.00
58534;BME280;44109;52.398;7.024;2023-02-13T07:07:42;103559.59;;;8.73;100.00
58534;BME280;44109;52.398;7.024;2023-02-13T07:10:11;103561.19;;;8.79;100.00
58534;BME280;44109;52.398;7.024;2023-02-13T07:12:40;103562.84;;;8.80;100.00
58534;BME280;44109;52.398;7.024;2023-02-13T07:15:08;103562.78;;;8.85;100.00
58534;BME280;44109;52.398;7.024;2023-02-13T07:17:38;103557.97;;;8.72;100.00
58534;BME280;44109;52.398;7.024;2023-02-13T07:20:07;103562.53;;;8.87;100.00
58534;BME280;44109;52.398;7.024;2023-02-13T07:22:35;103556.94;;;8.92;100.00
58534;BME280;44109;52.398;7.024;2023-02-13T07:25:03;103565.50;;;8.96;100.00
58534;BME280;44109;52.398;7.024;2023-02-13T07:27:32;103562.13;;;8.99;100.00
58534;BME280;44109;52.398;7.024;2023-02-13T07:29:59;103559.91;;;9.01;100.00
58534;BME280;44109;52.398;7.024;2023-02-13T07:32:27;103566.22;;;9.06;100.00
58534;BME280;44109;52.398;7.024;2023-02-13T07:34:56;103561.44;;;9.12;100.00
58534;BME280;44109;52.398;7.024;2023-02-13T07:37:23;103551.50;;;9.11;100.00
58534;BME280;44109;52.398;7.024;2023-02-13T07:39:53;103564.13;;;9.22;100.00
58534;BME280;44109;52.398;7.024;2023-02-13T07:42:21;103567.94;;;9.26;100.00
58534;BME280;44109;52.398;7.024;2023-02-13T07:44:48;103567.59;;;9.33;100.00
58534;BME280;44109;52.398;7.024;2023-02-13T07:47:16;103567.84;;;9.36;100.00
58534;BME280;44109;52.398;7.024;2023-02-13T07:49:44;103570.56;;;9.42;100.00
58534;BME280;44109;52.398;7.024;2023-02-13T07:52:13;103563.00;;;9.47;100.00
58534;BME280;44109;52.398;7.024;2023-02-13T07:54:40;103568.22;;;9.54;100.00
58534;BME280;44109;52.398;7.024;2023-02-13T07:57:12;103573.09;;;9.62;100.00
58534;BME280;44109;52.398;7.024;2023-02-13T07:59:40;103563.06;;;9.66;100.00
58534;BME280;44109;52.398;7.024;2023-02-13T08:02:10;103561.34;;;9.70;100.00
58534;BME280;44109;52.398;7.024;2023-02-13T08:04:39;103566.31;;;9.73;100.00
58534;BME280;44109;52.398;7.024;2023-02-13T08:07:06;103565.41;;;9.78;100.00
58534;BME280;44109;52.398;7.024;2023-02-13T08:09:35;103556.72;;;9.84;100.00
58534;BME280;44109;52.398;7.024;2023-02-13T08:12:20;103555.31;;;9.87;100.00
58534;BME280;44109;52.398;7.024;2023-02-13T08:14:48;103551.66;;;9.91;100.00
58534;BME280;44109;52.398;7.024;2023-02-13T08:17:16;103558.25;;;9.96;100.00
58534;BME280;44109;52.398;7.024;2023-02-13T08:19:43;103554.66;;;9.95;100.00
58534;BME280;44109;52.398;7.024;2023-02-13T08:22:11;103542.06;;;10.03;100.00
58534;BME280;44109;52.398;7.024;2023-02-13T08:24:40;103552.78;;;10.09;100.00
58534;BME280;44109;52.398;7.024;2023-02-13T08:27:10;103548.00;;;10.15;100.00
58534;BME280;44109;52.398;7.024;2023-02-13T08:29:39;103556.78;;;10.22;100.00
58534;BME280;44109;52.398;7.024;2023-02-13T08:32:07;103554.47;;;10.29;100.00
58534;BME280;44109;52.398;7.024;2023-02-13T08:34:35;103553.78;;;10.37;100.00
58534;BME280;44109;52.398;7.024;2023-02-13T08:37:03;103556.47;;;10.43;100.00
58534;BME280;44109;52.398;7.024;2023-02-13T08:39:31;103558.56;;;10.51;100.00
58534;BME280;44109;52.398;7.024;2023-02-13T08:42:00;103558.19;;;10.57;100.00
58534;BME280;44109;52.398;7.024;2023-02-13T08:44:27;103558.84;;;10.68;100.00
58534;BME280;44109;52.398;7.024;2023-02-13T08:46:55;103559.91;;;10.72;100.00
58534;BME280;44109;52.398;7.024;2023-02-13T08:49:23;103562.06;;;10.75;100.00
58534;BME280;44109;52.398;7.024;2023-02-13T08:51:50;103562.50;;;10.82;100.00
58534;BME280;44109;52.398;7.024;2023-02-13T08:54:18;103559.03;;;10.90;100.00
58534;BME280;44109;52.398;7.024;2023-02-13T08:56:45;103563.03;;;10.98;100.00
58534;BME280;44109;52.398;7.024;2023-02-13T08:59:14;103569.84;;;11.06;100.00
58534;BME280;44109;52.398;7.024;2023-02-13T09:01:42;103570.06;;;11.09;100.00
58534;BME280;44109;52.398;7.024;2023-02-13T09:04:10;103575.22;;;11.16;100.00
58534;BME280;44109;52.398;7.024;2023-02-13T09:06:40;103580.69;;;11.21;100.00
58534;BME280;44109;52.398;7.024;2023-02-13T09:09:08;103582.84;;;11.24;100.00
58534;BME280;44109;52.398;7.024;2023-02-13T09:11:36;103580.59;;;11.26;100.00
58534;BME280;44109;52.398;7.024;2023-02-13T09:14:04;103585.53;;;11.29;100.00
58534;BME280;44109;52.398;7.024;2023-02-13T09:16:33;103585.97;;;11.36;100.00
58534;BME280;44109;52.398;7.024;2023-02-13T09:19:00;103583.31;;;11.45;100.00
58534;BME280;44109;52.398;7.024;2023-02-13T09:21:29;103585.56;;;11.57;100.00
58534;BME280;44109;52.398;7.024;2023-02-13T09:23:56;103587.63;;;11.65;100.00
58534;BME280;44109;52.398;7.024;2023-02-13T09:26:24;103576.72;;;11.68;100.00
58534;BME280;44109;52.398;7.024;2023-02-13T09:28:52;103583.47;;;11.76;99.99
58534;BME280;44109;52.398;7.024;2023-02-13T09:31:20;103583.94;;;11.83;99.53
58534;BME280;44109;52.398;7.024;2023-02-13T09:33:50;103564.53;;;11.78;99.02
58534;BME280;44109;52.398;7.024;2023-02-13T09:36:20;103588.34;;;11.98;99.05
58534;BME280;44109;52.398;7.024;2023-02-13T09:38:52;103597.41;;;12.04;97.82
58534;BME280;44109;52.398;7.024;2023-02-13T09:41:23;103593.59;;;12.13;98.17
58534;BME280;44109;52.398;7.024;2023-02-13T09:43:55;103591.06;;;12.26;97.79
58534;BME280;44109;52.398;7.024;2023-02-13T09:46:29;103597.72;;;12.38;98.03
58534;BME280;44109;52.398;7.024;2023-02-13T09:49:05;103596.03;;;12.15;91.82
58534;BME280;44109;52.398;7.024;2023-02-13T09:51:36;103596.91;;;12.38;95.52
58534;BME280;44109;52.398;7.024;2023-02-13T09:54:05;103595.34;;;12.46;94.08
58534;BME280;44109;52.398;7.024;2023-02-13T09:56:40;103587.06;;;12.54;93.96
58534;BME280;44109;52.398;7.024;2023-02-13T09:59:36;103596.31;;;12.63;93.35
58534;BME280;44109;52.398;7.024;2023-02-13T10:02:25;103597.22;;;12.73;92.12
58534;BME280;44109;52.398;7.024;2023-02-13T10:05:14;103592.53;;;12.82;92.64
58534;BME280;44109;52.398;7.024;2023-02-13T10:07:57;103584.72;;;12.92;93.00
58534;BME280;44109;52.398;7.024;2023-02-13T10:10:38;103596.13;;;13.05;91.92
58534;BME280;44109;52.398;7.024;2023-02-13T10:13:35;103588.38;;;13.24;91.72
58534;BME280;44109;52.398;7.024;2023-02-13T10:16:16;103585.44;;;13.29;89.82
58534;BME280;44109;52.398;7.024;2023-02-13T10:18:49;103588.28;;;13.38;89.03
58534;BME280;44109;52.398;7.024;2023-02-13T10:21:26;103581.88;;;13.37;88.10
58534;BME280;44109;52.398;7.024;2023-02-13T10:23:59;103582.97;;;13.59;89.43
58534;BME280;44109;52.398;7.024;2023-02-13T10:26:33;103582.47;;;13.65;86.69
58534;BME280;44109;52.398;7.024;2023-02-13T10:29:15;103580.66;;;13.61;84.78
58534;BME280;44109;52.398;7.024;2023-02-13T10:32:09;103575.91;;;13.61;83.92
58534;BME280;44109;52.398;7.024;2023-02-13T10:34:44;103573.34;;;13.82;85.83
58534;BME280;44109;52.398;7.024;2023-02-13T10:37:16;103565.31;;;13.89;84.09
58534;BME280;44109;52.398;7.024;2023-02-13T10:39:48;103571.88;;;13.93;84.19
58534;BME280;44109;52.398;7.024;2023-02-13T10:42:21;103564.66;;;13.92;82.43
58534;BME280;44109;52.398;7.024;2023-02-13T10:45:04;103566.16;;;14.07;82.43
58534;BME280;44109;52.398;7.024;2023-02-13T10:48:00;103560.72;;;14.02;80.86
58534;BME280;44109;52.398;7.024;2023-02-13T10:50:42;103563.56;;;14.19;80.97
58534;BME280;44109;52.398;7.024;2023-02-13T10:53:20;103568.66;;;14.26;79.29
58534;BME280;44109;52.398;7.024;2023-02-13T10:56:04;103564.03;;;14.30;77.25
58534;BME280;44109;52.398;7.024;2023-02-13T10:58:56;103548.94;;;14.31;76.66
58534;BME280;44109;52.398;7.024;2023-02-13T11:01:46;103554.53;;;14.23;74.08
58534;BME280;44109;52.398;7.024;2023-02-13T11:04:20;103563.38;;;14.16;71.98
58534;BME280;44109;52.398;7.024;2023-02-13T11:06:53;103553.88;;;14.52;73.84
58534;BME280;44109;52.398;7.024;2023-02-13T11:09:24;103562.09;;;14.57;71.66
58534;BME280;44109;52.398;7.024;2023-02-13T11:11:53;103558.78;;;14.46;68.79
58534;BME280;44109;52.398;7.024;2023-02-13T11:14:23;103560.78;;;14.45;70.12
58534;BME280;44109;52.398;7.024;2023-02-13T11:16:54;103562.09;;;14.65;71.22
58534;BME280;44109;52.398;7.024;2023-02-13T11:19:28;103554.34;;;14.71;69.90
58534;BME280;44109;52.398;7.024;2023-02-13T11:22:02;103548.09;;;14.74;66.17
58534;BME280;44109;52.398;7.024;2023-02-13T11:24:36;103548.63;;;14.76;68.36
58534;BME280;44109;52.398;7.024;2023-02-13T11:27:09;103552.16;;;15.03;68.25
58534;BME280;44109;52.398;7.024;2023-02-13T11:29:51;103551.22;;;14.90;69.45
58534;BME280;44109;52.398;7.024;2023-02-13T11:32:22;103533.91;;;14.96;66.28
58534;BME280;44109;52.398;7.024;2023-02-13T11:34:50;103531.81;;;14.85;66.18
58534;BME280;44109;52.398;7.024;2023-02-13T11:37:23;103536.25;;;14.86;64.09
58534;BME280;44109;52.398;7.024;2023-02-13T11:39:55;103524.56;;;14.92;64.38
58534;BME280;44109;52.398;7.024;2023-02-13T11:42:27;103521.97;;;14.70;66.75
58534;BME280;44109;52.398;7.024;2023-02-13T11:44:59;103519.00;;;14.75;64.75
58534;BME280;44109;52.398;7.024;2023-02-13T11:47:36;103521.97;;;14.70;65.57
58534;BME280;44109;52.398;7.024;2023-02-13T11:50:20;103517.56;;;14.60;64.13
58534;BME280;44109;52.398;7.024;2023-02-13T11:52:54;103525.47;;;14.50;65.25
58534;BME280;44109;52.398;7.024;2023-02-13T11:55:29;103521.19;;;14.52;66.18
58534;BME280;44109;52.398;7.024;2023-02-13T11:58:00;103520.38;;;14.52;65.04
58534;BME280;44109;52.398;7.024;2023-02-13T12:00:32;103524.28;;;14.33;65.33
58534;BME280;44109;52.398;7.024;2023-02-13T12:03:26;103516.72;;;14.68;67.65
58534;BME280;44109;52.398;7.024;2023-02-13T12:05:59;103509.94;;;14.87;68.15
58534;BME280;44109;52.398;7.024;2023-02-13T12:08:29;103517.16;;;14.96;64.91
58534;BME280;44109;52.398;7.024;2023-02-13T12:11:01;103504.56;;;14.73;64.90
58534;BME280;44109;52.398;7.024;2023-02-13T12:13:36;103510.72;;;15.05;64.79
58534;BME280;44109;52.398;7.024;2023-02-13T12:16:10;103515.63;;;15.08;64.09
58534;BME280;44109;52.398;7.024;2023-02-13T12:18:49;103505.41;;;15.12;63.78
58534;BME280;44109;52.398;7.024;2023-02-13T12:21:30;103502.69;;;14.94;62.76
58534;BME280;44109;52.398;7.024;2023-02-13T12:24:19;103505.19;;;14.87;64.23
58534;BME280;44109;52.398;7.024;2023-02-13T12:27:12;103500.44;;;14.79;63.77
58534;BME280;44109;52.398;7.024;2023-02-13T12:33:01;103494.84;;;15.26;65.00
58534;BME280;44109;52.398;7.024;2023-02-13T12:35:51;103497.44;;;15.31;63.43
58534;BME280;44109;52.398;7.024;2023-02-13T12:38:39;103489.47;;;15.42;64.19
58534;BME280;44109;52.398;7.024;2023-02-13T12:41:19;103484.09;;;15.58;63.05
58534;BME280;44109;52.398;7.024;2023-02-13T12:47:14;103484.28;;;14.85;61.28
58534;BME280;44109;52.398;7.024;2023-02-13T12:49:59;103477.47;;;14.39;61.53
58534;BME280;44109;52.398;7.024;2023-02-13T12:53:26;103465.50;;;14.12;63.97
58534;BME280;44109;52.398;7.024;2023-02-13T12:56:07;103478.97;;;13.84;63.85
58534;BME280;44109;52.398;7.024;2023-02-13T12:59:05;103466.78;;;13.45;65.59
58534;BME280;44109;52.398;7.024;2023-02-13T13:01:56;103466.28;;;13.04;66.63
58534;BME280;44109;52.398;7.024;2023-02-13T13:04:48;103456.63;;;13.10;67.66
58534;BME280;44109;52.398;7.024;2023-02-13T13:07:36;103455.78;;;13.01;67.83
58534;BME280;44109;52.398;7.024;2023-02-13T13:10:33;103460.19;;;13.02;68.94
58534;BME280;44109;52.398;7.024;2023-02-13T13:13:16;103458.41;;;13.06;70.26
58534;BME280;44109;52.398;7.024;2023-02-13T13:15:58;103452.22;;;13.09;70.66
58534;BME280;44109;52.398;7.024;2023-02-13T13:18:44;103442.88;;;13.13;71.02
58534;BME280;44109;52.398;7.024;2023-02-13T13:21:34;103441.84;;;13.01;71.33
58534;BME280;44109;52.398;7.024;2023-02-13T13:24:20;103439.34;;;12.90;70.90
58534;BME280;44109;52.398;7.024;2023-02-13T13:26:55;103435.88;;;12.85;71.21
58534;BME280;44109;52.398;7.024;2023-02-13T13:29:28;103439.22;;;12.95;71.73
58534;BME280;44109;52.398;7.024;2023-02-13T13:32:01;103420.94;;;12.81;71.64
58534;BME280;44109;52.398;7.024;2023-02-13T13:34:34;103434.41;;;12.87;72.55
58534;BME280;44109;52.398;7.024;2023-02-13T13:37:09;103433.69;;;12.73;73.35